Time;durP1;ratioP1;P1;durP2;ratioP2;P2;SDS_P1;SDS_P2;PMS_P1;PMS_P2;Temp;Humidity;BMP_temperature;BMP_pressure;BME280_temperature;BME280_humidity;BME280_pressure;Samples;Min_cycle;Max_cycle;Signal;HPM_P1;HPM_P2
2023/07/19 00:01:24;;;;;;;12.43;4.43;;;;;;;16.49;100.00;101078.75;4976969;28;20129;-69
2023/07/19 00:04:10;;;;;;;10.93;4.60;;;;;;;16.34;100.00;101075.66;5000671;28;20042;-69
2023/07/19 00:06:57;;;;;;;7.15;4.65;;;;;;;16.35;100.00;101082.06;4992479;28;20074;-69
2023/07/19 00:09:43;;;;;;;11.10;5.03;;;;;;;16.25;100.00;101087.66;5006892;28;20806;-68
2023/07/19 00:12:28;;;;;;;15.07;4.90;;;;;;;16.18;100.00;101078.22;4965957;28;20076;-69
2023/07/19 00:15:14;;;;;;;10.52;5.20;;;;;;;16.35;100.00;101082.94;5002568;28;20046;-69
2023/07/19 00:18:00;;;;;;;10.38;5.25;;;;;;;16.51;100.00;101081.38;5010562;28;20042;-69
2023/07/19 00:20:45;;;;;;;13.00;6.15;;;;;;;16.43;100.00;101082.16;5000996;28;20641;-70
2023/07/19 00:23:31;;;;;;;13.77;7.47;;;;;;;16.39;100.00;101080.72;4990887;28;20042;-71
2023/07/19 00:26:17;;;;;;;10.73;6.22;;;;;;;16.36;100.00;101083.78;5002110;28;20686;-69
2023/07/19 00:29:03;;;;;;;13.73;6.82;;;;;;;16.31;100.00;101083.38;4999978;28;20088;-70
2023/07/19 00:31:48;;;;;;;12.07;6.63;;;;;;;16.33;100.00;101079.47;5010658;28;20046;-69
2023/07/19 00:34:34;;;;;;;15.20;6.65;;;;;;;16.31;100.00;101075.09;4993536;28;20147;-70
2023/07/19 00:37:20;;;;;;;15.23;7.72;;;;;;;16.25;100.00;101072.94;5000794;28;20037;-68
2023/07/19 00:40:06;;;;;;;18.85;6.85;;;;;;;16.20;100.00;101073.44;4993851;28;20034;-68
2023/07/19 00:42:56;;;;;;;11.20;6.57;;;;;;;16.22;100.00;101076.91;4995070;28;20050;-69
2023/07/19 00:45:53;;;;;;;12.57;6.32;;;;;;;16.23;100.00;101075.84;5007898;28;20072;-69
2023/07/19 00:48:41;;;;;;;11.02;7.05;;;;;;;16.19;100.00;101065.28;5011635;28;20508;-69
2023/07/19 00:51:27;;;;;;;16.05;6.57;;;;;;;16.11;100.00;101072.44;5007414;28;20045;-69
2023/07/19 00:54:14;;;;;;;12.20;5.95;;;;;;;16.08;100.00;101067.19;5006871;28;20030;-69
2023/07/19 00:57:02;;;;;;;15.48;7.97;;;;;;;16.05;100.00;101052.84;4999041;28;20474;-69
2023/07/19 00:59:48;;;;;;;14.52;6.95;;;;;;;16.04;100.00;101053.88;4999685;28;20274;-70
2023/07/19 01:02:35;;;;;;;12.75;7.93;;;;;;;16.06;100.00;101054.59;4996052;28;20085;-69
2023/07/19 01:05:21;;;;;;;19.90;7.32;;;;;;;15.98;100.00;101050.66;5000305;28;20129;-69
2023/07/19 01:08:06;;;;;;;10.50;7.30;;;;;;;15.90;100.00;101056.09;5000309;28;20038;-69
2023/07/19 01:10:53;;;;;;;10.15;6.53;;;;;;;15.84;100.00;101067.75;4978902;28;20085;-70
2023/07/19 01:13:50;;;;;;;15.00;7.75;;;;;;;15.78;100.00;101046.25;5003205;28;20046;-69
2023/07/19 01:16:36;;;;;;;12.50;7.40;;;;;;;15.87;100.00;101050.88;4986481;28;20414;-69
2023/07/19 01:19:22;;;;;;;12.88;6.82;;;;;;;15.90;100.00;101052.47;4988698;28;20042;-70
2023/07/19 01:22:08;;;;;;;10.38;7.22;;;;;;;15.85;100.00;101050.16;4981852;28;20038;-70
2023/07/19 01:24:53;;;;;;;11.98;7.53;;;;;;;15.86;100.00;101048.28;4999774;28;20046;-69
2023/07/19 01:27:42;;;;;;;15.23;7.93;;;;;;;15.83;100.00;101046.69;4973381;28;20038;-69
2023/07/19 01:30:28;;;;;;;21.35;7.40;;;;;;;15.85;100.00;101049.28;4999219;28;21927;-69
2023/07/19 01:33:14;;;;;;;18.30;8.30;;;;;;;15.72;100.00;101035.78;5001018;28;20126;-70
2023/07/19 01:36:00;;;;;;;14.95;8.02;;;;;;;15.64;100.00;101044.81;4988279;28;20113;-69
2023/07/19 01:38:45;;;;;;;17.35;7.80;;;;;;;15.75;100.00;101041.00;5003643;28;20042;-69
2023/07/19 01:41:31;;;;;;;14.88;7.88;;;;;;;15.89;100.00;101047.94;4991658;28;20038;-71
2023/07/19 01:44:17;;;;;;;11.80;7.97;;;;;;;15.85;100.00;101041.88;4987113;28;20478;-70
2023/07/19 01:47:03;;;;;;;15.95;6.88;;;;;;;15.96;100.00;101033.38;4997030;28;20042;-69
2023/07/19 01:49:49;;;;;;;11.45;7.03;;;;;;;15.97;100.00;101023.19;5000593;28;20077;-69
2023/07/19 01:52:35;;;;;;;11.48;7.05;;;;;;;16.02;100.00;101031.03;5001253;28;20057;-69
2023/07/19 01:55:21;;;;;;;21.00;7.20;;;;;;;15.83;100.00;101035.63;5002576;28;20489;-70
2023/07/19 01:58:08;;;;;;;11.73;6.78;;;;;;;15.79;100.00;101034.22;4979863;28;20046;-68
2023/07/19 02:00:55;;;;;;;17.38;7.40;;;;;;;15.94;100.00;101029.91;5001380;28;20392;-69
2023/07/19 02:03:40;;;;;;;13.45;7.47;;;;;;;15.86;100.00;101037.22;4998450;28;20045;-69
2023/07/19 02:06:26;;;;;;;15.68;6.93;;;;;;;15.87;100.00;101026.03;5006545;28;20049;-69
2023/07/19 02:09:12;;;;;;;17.38;7.30;;;;;;;15.72;100.00;101025.59;5000428;28;20381;-69
2023/07/19 02:11:58;;;;;;;14.50;7.07;;;;;;;15.77;100.00;101023.31;5000479;28;20113;-69
2023/07/19 02:14:43;;;;;;;18.50;7.80;;;;;;;15.78;100.00;101025.03;5007508;28;20042;-70
2023/07/19 02:17:29;;;;;;;10.20;6.50;;;;;;;15.77;100.00;101020.56;5002466;28;20484;-68
2023/07/19 02:20:19;;;;;;;14.55;6.90;;;;;;;15.85;100.00;101014.25;5001975;28;20046;-67
2023/07/19 02:23:05;;;;;;;10.82;6.63;;;;;;;15.79;100.00;101012.13;4993972;28;20389;-67
2023/07/19 02:25:51;;;;;;;14.88;7.03;;;;;;;15.61;100.00;101017.53;4995504;28;20050;-68
2023/07/19 02:28:37;;;;;;;13.02;7.30;;;;;;;15.60;100.00;101008.34;5006965;28;20192;-68
2023/07/19 02:31:23;;;;;;;13.90;7.05;;;;;;;15.52;100.00;101002.72;4996344;28;20040;-70
2023/07/19 02:34:09;;;;;;;18.17;7.50;;;;;;;15.29;100.00;101004.09;4992711;28;20046;-69
2023/07/19 02:36:56;;;;;;;16.45;7.38;;;;;;;15.33;100.00;101002.78;5001071;28;20121;-68
2023/07/19 02:39:42;;;;;;;13.43;7.55;;;;;;;15.36;100.00;101006.09;5000926;28;20410;-68
2023/07/19 02:42:28;;;;;;;9.30;6.85;;;;;;;15.44;100.00;101008.97;5005801;28;20084;-69
2023/07/19 02:45:13;;;;;;;12.07;6.97;;;;;;;15.41;100.00;101000.13;4992226;28;20064;-67
2023/07/19 02:47:59;;;;;;;11.85;7.82;;;;;;;15.38;100.00;101004.09;5005237;28;22038;-68
2023/07/19 02:50:46;;;;;;;19.92;8.40;;;;;;;15.48;100.00;101001.31;4998206;28;20073;-68
2023/07/19 02:53:32;;;;;;;10.15;6.88;;;;;;;15.70;100.00;100993.66;4985041;28;20046;-69
2023/07/19 02:56:18;;;;;;;11.52;6.28;;;;;;;15.87;100.00;100995.66;5003624;28;20049;-68
2023/07/19 02:59:04;;;;;;;9.18;7.00;;;;;;;15.90;100.00;100991.72;5003479;28;20045;-69
2023/07/19 03:01:50;;;;;;;18.27;6.95;;;;;;;15.73;100.00;101002.50;4997514;28;20046;-68
2023/07/19 03:04:35;;;;;;;11.15;5.93;;;;;;;15.76;100.00;100998.63;5003370;28;20107;-69
2023/07/19 03:07:21;;;;;;;11.52;6.30;;;;;;;15.74;100.00;100995.97;5001202;28;20053;-70
2023/07/19 03:10:08;;;;;;;13.55;6.28;;;;;;;15.76;100.00;101005.00;4986809;28;20047;-70
2023/07/19 03:12:53;;;;;;;14.38;7.03;;;;;;;15.87;100.00;101006.72;4987211;28;20108;-68
2023/07/19 03:15:39;;;;;;;8.80;5.90;;;;;;;16.02;100.00;101000.66;4999487;28;20497;-68
2023/07/19 03:18:25;;;;;;;14.43;6.00;;;;;;;16.19;100.00;101005.38;4994146;28;20402;-68
2023/07/19 03:21:10;;;;;;;9.75;6.15;;;;;;;16.34;100.00;101003.81;5002378;28;20038;-68
2023/07/19 03:23:56;;;;;;;9.35;6.03;;;;;;;16.26;100.00;101011.13;5006381;28;20425;-70
2023/07/19 03:26:42;;;;;;;10.70;5.68;;;;;;;16.32;100.00;101005.84;4991922;28;20780;-68
2023/07/19 03:29:27;;;;;;;10.73;5.68;;;;;;;16.45;100.00;101007.38;4999676;28;22008;-68
2023/07/19 03:32:13;;;;;;;10.18;5.90;;;;;;;16.48;100.00;101004.31;4998043;28;20461;-69
2023/07/19 03:34:59;;;;;;;9.25;5.43;;;;;;;16.34;100.00;101020.38;5005071;28;20497;-67
2023/07/19 03:37:45;;;;;;;9.68;5.57;;;;;;;16.30;100.00;101027.25;5009662;28;20073;-68
2023/07/19 03:40:30;;;;;;;16.95;6.20;;;;;;;16.21;100.00;101024.56;5001264;28;20070;-68
2023/07/19 03:43:16;;;;;;;13.45;5.35;;;;;;;16.29;100.00;101021.88;4993801;28;20465;-68
2023/07/19 03:46:03;;;;;;;10.48;5.72;;;;;;;16.27;100.00;101021.19;5003638;28;20044;-68
2023/07/19 03:48:49;;;;;;;10.57;5.95;;;;;;;16.29;100.00;101028.28;5002511;28;20140;-68
2023/07/19 03:51:35;;;;;;;12.38;6.03;;;;;;;16.26;100.00;101025.81;5008611;28;20077;-68
2023/07/19 03:54:20;;;;;;;8.07;6.60;;;;;;;16.20;100.00;101028.31;5009961;28;20516;-69
2023/07/19 03:57:06;;;;;;;7.55;5.60;;;;;;;16.23;100.00;101028.88;5002846;28;20149;-67
2023/07/19 03:59:52;;;;;;;11.82;6.05;;;;;;;16.21;100.00;101028.19;5004545;28;20054;-69
2023/07/19 04:02:38;;;;;;;9.38;6.50;;;;;;;16.21;100.00;101022.66;4998636;28;20041;-68
2023/07/19 04:05:23;;;;;;;10.20;6.60;;;;;;;16.29;100.00;101024.66;5007411;28;20046;-68
2023/07/19 04:08:09;;;;;;;9.27;5.60;;;;;;;16.39;100.00;101027.34;5004828;28;20038;-67
2023/07/19 04:10:55;;;;;;;12.52;5.85;;;;;;;16.46;100.00;101025.69;5009513;28;20073;-68
2023/07/19 04:13:40;;;;;;;10.50;5.65;;;;;;;16.61;100.00;101021.38;4997440;28;20044;-68
2023/07/19 04:16:26;;;;;;;9.75;5.50;;;;;;;16.55;100.00;101019.25;5007752;28;20046;-68
2023/07/19 04:19:12;;;;;;;9.02;6.03;;;;;;;16.51;100.00;101032.50;5005181;28;20035;-68
2023/07/19 04:21:58;;;;;;;12.45;6.97;;;;;;;16.68;100.00;101021.63;5009497;28;20038;-67
2023/07/19 04:24:43;;;;;;;11.20;5.70;;;;;;;16.71;100.00;101016.63;4994799;28;20058;-69
2023/07/19 04:27:30;;;;;;;12.75;5.85;;;;;;;16.82;100.00;101018.31;4986999;28;20054;-67
2023/07/19 04:30:16;;;;;;;10.95;5.32;;;;;;;16.86;100.00;101019.75;5006720;28;20077;-69
2023/07/19 04:33:04;;;;;;;8.75;5.10;;;;;;;16.77;100.00;101022.56;4988430;28;20045;-69
2023/07/19 04:35:50;;;;;;;11.02;5.88;;;;;;;16.81;100.00;101016.56;4998627;28;20053;-68
2023/07/19 04:38:36;;;;;;;8.38;5.60;;;;;;;16.80;100.00;101013.94;5008590;28;20392;-68
2023/07/19 04:41:22;;;;;;;12.98;5.75;;;;;;;16.90;100.00;101020.28;4994212;28;20046;-68
2023/07/19 04:44:07;;;;;;;10.10;5.93;;;;;;;16.87;100.00;101027.03;4988846;28;20058;-69
2023/07/19 04:46:53;;;;;;;12.82;6.00;;;;;;;16.92;100.00;101029.28;4975607;28;20076;-68
2023/07/19 04:49:39;;;;;;;12.68;5.85;;;;;;;16.92;100.00;101033.97;4982487;28;20058;-67
2023/07/19 04:52:25;;;;;;;9.48;5.50;;;;;;;16.92;100.00;101034.81;5000054;28;20362;-67
2023/07/19 04:55:12;;;;;;;12.15;5.65;;;;;;;16.97;100.00;101037.13;4999549;28;21778;-69
2023/07/19 04:57:57;;;;;;;16.70;6.05;;;;;;;16.94;100.00;101034.66;5004065;28;20085;-67
2023/07/19 05:00:43;;;;;;;14.50;5.60;;;;;;;17.07;100.00;101035.16;5002491;28;20394;-69
2023/07/19 05:03:29;;;;;;;13.48;5.63;;;;;;;17.16;100.00;101038.84;5000509;28;20092;-68
2023/07/19 05:06:15;;;;;;;10.57;5.03;;;;;;;17.17;100.00;101041.47;5003781;28;20050;-67
2023/07/19 05:09:00;;;;;;;12.00;5.40;;;;;;;17.18;100.00;101042.31;5000205;28;20057;-67
2023/07/19 05:11:46;;;;;;;13.75;6.60;;;;;;;17.30;100.00;101038.28;5007521;28;20034;-68
2023/07/19 05:14:32;;;;;;;12.63;5.10;;;;;;;17.33;100.00;101032.44;5008046;28;20041;-67
2023/07/19 05:17:18;;;;;;;12.73;5.65;;;;;;;17.38;100.00;101035.59;4992076;28;20093;-68
2023/07/19 05:20:05;;;;;;;11.98;5.30;;;;;;;17.51;100.00;101039.81;4997694;28;20164;-70
2023/07/19 05:22:51;;;;;;;12.75;5.53;;;;;;;17.56;100.00;101041.06;4993313;28;20104;-68
2023/07/19 05:25:38;;;;;;;17.60;5.30;;;;;;;17.64;100.00;101038.34;4996956;28;20104;-67
2023/07/19 05:28:23;;;;;;;8.15;4.88;;;;;;;17.63;100.00;101038.50;5002999;28;20710;-66
2023/07/19 05:31:09;;;;;;;7.38;5.13;;;;;;;17.72;100.00;101045.81;5006407;28;20048;-67
2023/07/19 05:33:55;;;;;;;10.57;5.35;;;;;;;17.77;100.00;101043.47;5003241;28;20052;-68
2023/07/19 05:36:40;;;;;;;14.68;6.55;;;;;;;17.77;100.00;101049.00;5002918;28;20048;-67
2023/07/19 05:39:26;;;;;;;14.18;5.15;;;;;;;17.90;100.00;101040.25;5006066;28;20096;-69
2023/07/19 05:42:12;;;;;;;10.70;5.65;;;;;;;17.83;100.00;101041.91;4993719;28;20034;-68
2023/07/19 05:44:58;;;;;;;9.93;4.80;;;;;;;17.88;100.00;101039.56;5005624;28;20133;-68
2023/07/19 05:47:44;;;;;;;10.32;5.20;;;;;;;17.89;100.00;101040.41;5001652;28;20413;-68
2023/07/19 05:50:29;;;;;;;9.50;4.82;;;;;;;17.94;100.00;101035.28;5009508;28;20054;-67
2023/07/19 05:53:15;;;;;;;7.70;4.53;;;;;;;18.06;100.00;101045.00;4999283;28;20041;-67
2023/07/19 05:56:01;;;;;;;10.75;4.38;;;;;;;18.04;100.00;101047.09;4991818;28;20042;-68
2023/07/19 05:58:47;;;;;;;12.40;4.82;;;;;;;17.98;100.00;101042.19;5002723;28;20077;-67
2023/07/19 06:01:33;;;;;;;12.48;4.72;;;;;;;18.08;100.00;101044.84;5009983;28;20120;-67
2023/07/19 06:04:18;;;;;;;10.07;4.75;;;;;;;18.31;100.00;101045.97;4984756;28;20067;-67
2023/07/19 06:07:04;;;;;;;14.88;4.40;;;;;;;18.41;100.00;101048.59;5004604;28;20069;-68
2023/07/19 06:09:50;;;;;;;11.02;4.38;;;;;;;18.48;100.00;101046.91;4998017;28;20045;-67
2023/07/19 06:12:36;;;;;;;12.43;4.35;;;;;;;18.48;100.00;101041.38;4999166;28;20064;-68
2023/07/19 06:15:21;;;;;;;7.18;4.40;;;;;;;18.65;100.00;101033.09;4998743;28;20086;-67
2023/07/19 06:18:07;;;;;;;15.65;4.45;;;;;;;18.74;100.00;101045.91;4999059;28;20041;-69
2023/07/19 06:20:53;;;;;;;13.77;5.53;;;;;;;18.41;100.00;101040.28;4991805;28;20041;-68
2023/07/19 06:23:39;;;;;;;9.30;4.95;;;;;;;18.57;100.00;101039.47;5007906;28;20550;-68
2023/07/19 06:26:25;;;;;;;14.80;5.18;;;;;;;18.67;100.00;101045.72;5008684;28;20060;-68
2023/07/19 06:29:10;;;;;;;11.30;5.05;;;;;;;18.57;100.00;101042.25;5002673;28;20133;-67
2023/07/19 06:31:56;;;;;;;11.70;5.25;;;;;;;18.92;100.00;101041.16;5005224;28;20041;-68
2023/07/19 06:34:42;;;;;;;12.43;5.72;;;;;;;19.22;100.00;101046.19;5000093;28;20554;-67
2023/07/19 06:37:28;;;;;;;8.23;4.60;;;;;;;20.01;100.00;101041.72;4991007;28;20080;-67
2023/07/19 06:40:15;;;;;;;11.35;4.70;;;;;;;20.08;100.00;101044.66;4998516;28;20054;-67
2023/07/19 06:43:00;;;;;;;16.08;4.97;;;;;;;19.92;100.00;101050.25;4990941;28;20053;-67
2023/07/19 06:45:47;;;;;;;8.70;4.60;;;;;;;20.20;100.00;101047.91;5002506;28;20068;-67
2023/07/19 06:48:33;;;;;;;10.00;4.78;;;;;;;20.85;100.00;101051.44;5006122;28;20038;-69
2023/07/19 06:51:18;;;;;;;13.00;4.22;;;;;;;20.72;100.00;101049.25;4991742;28;20046;-69
2023/07/19 06:54:04;;;;;;;15.73;3.97;;;;;;;20.71;100.00;101044.72;5004584;28;20398;-69
2023/07/19 06:56:50;;;;;;;11.38;6.35;;;;;;;21.35;100.00;101040.75;5001704;28;20041;-69
2023/07/19 06:59:36;;;;;;;11.75;3.95;;;;;;;21.29;100.00;101031.25;5007348;28;20038;-68
2023/07/19 07:02:21;;;;;;;7.90;3.67;;;;;;;21.07;100.00;101046.91;5007677;28;20412;-69
2023/07/19 07:05:10;;;;;;;12.98;4.15;;;;;;;20.82;100.00;101035.09;4999682;28;20349;-68
2023/07/19 07:07:56;;;;;;;10.85;3.90;;;;;;;21.07;100.00;101036.66;4988359;28;20041;-68
2023/07/19 07:10:45;;;;;;;15.68;4.15;;;;;;;21.13;100.00;101039.75;5005568;28;20048;-69
2023/07/19 07:13:31;;;;;;;13.68;3.70;;;;;;;21.60;100.00;101042.28;4985980;28;20910;-68
2023/07/19 07:16:16;;;;;;;9.93;3.47;;;;;;;22.14;96.48;101051.47;5007913;28;20374;-69
2023/07/19 07:19:02;;;;;;;12.10;4.40;;;;;;;21.32;100.00;101044.78;4980519;28;20057;-67
2023/07/19 07:21:48;;;;;;;11.07;4.47;;;;;;;21.33;100.00;101043.72;5007826;28;20064;-68
2023/07/19 07:24:34;;;;;;;7.85;3.78;;;;;;;21.73;98.73;101047.22;5003368;28;20077;-67
2023/07/19 07:27:20;;;;;;;14.85;3.88;;;;;;;22.17;96.26;101043.56;5007648;28;20048;-69
2023/07/19 07:30:09;;;;;;;9.48;3.60;;;;;;;22.08;95.22;101044.72;4999325;28;20076;-69
2023/07/19 07:32:55;;;;;;;11.52;3.50;;;;;;;22.51;93.90;101042.13;5004101;28;20050;-70
2023/07/19 07:35:40;;;;;;;10.73;3.67;;;;;;;21.81;92.73;101049.06;5007935;28;20042;-69
2023/07/19 07:38:27;;;;;;;11.07;3.28;;;;;;;22.87;88.39;101041.22;5006611;28;20121;-70
2023/07/19 07:41:12;;;;;;;8.95;3.55;;;;;;;22.40;88.76;101042.63;4977577;28;20126;-69
2023/07/19 07:43:59;;;;;;;13.80;3.28;;;;;;;22.47;89.24;101049.13;4996032;28;20132;-69
2023/07/19 07:46:46;;;;;;;9.90;3.60;;;;;;;23.02;83.32;101043.97;4999834;28;20512;-68
2023/07/19 07:49:32;;;;;;;7.32;2.90;;;;;;;23.54;79.06;101041.88;5008821;28;20054;-69
2023/07/19 07:52:18;;;;;;;10.05;3.03;;;;;;;23.81;77.85;101037.38;4996023;28;20042;-68
2023/07/19 07:55:06;;;;;;;7.40;3.22;;;;;;;23.26;79.89;101034.34;4988970;28;20510;-69
2023/07/19 07:57:51;;;;;;;14.02;2.40;;;;;;;24.33;75.95;101029.50;4992700;28;20431;-70
2023/07/19 08:00:37;;;;;;;7.55;2.85;;;;;;;23.89;77.34;101033.59;5007015;28;20049;-68
2023/07/19 08:03:24;;;;;;;9.40;2.50;;;;;;;24.92;72.75;101027.13;5004824;28;20042;-69
2023/07/19 08:06:09;;;;;;;7.70;2.67;;;;;;;23.58;74.16;101022.78;5007902;28;20104;-68
2023/07/19 08:08:55;;;;;;;8.23;3.22;;;;;;;24.35;75.96;101015.28;5009497;28;20100;-68
2023/07/19 08:11:41;;;;;;;10.13;2.65;;;;;;;24.88;71.23;101017.44;4994574;28;20054;-71
2023/07/19 08:14:27;;;;;;;7.78;2.03;;;;;;;24.02;72.04;101011.28;5000583;28;20042;-69
2023/07/19 08:17:12;;;;;;;6.47;2.33;;;;;;;24.31;71.40;101009.25;5008118;28;20224;-70
2023/07/19 08:19:58;;;;;;;9.05;2.78;;;;;;;23.93;70.09;101004.13;5011048;28;20049;-70
2023/07/19 08:22:44;;;;;;;4.20;1.95;;;;;;;24.69;69.97;101008.78;5011434;28;20096;-69
2023/07/19 08:25:29;;;;;;;6.18;1.92;;;;;;;24.74;68.60;101008.13;5015660;28;20212;-69
2023/07/19 08:28:15;;;;;;;8.15;2.08;;;;;;;24.56;68.49;101005.94;5007059;28;20041;-71
2023/07/19 08:31:01;;;;;;;8.05;2.28;;;;;;;25.26;66.56;101014.91;5008715;28;20145;-68
2023/07/19 08:33:47;;;;;;;9.70;1.90;;;;;;;23.78;66.90;101006.16;5001247;28;20070;-69
2023/07/19 08:36:32;;;;;;;12.80;1.60;;;;;;;24.73;65.20;101017.63;5005601;28;20167;-68
2023/07/19 08:39:18;;;;;;;5.97;1.60;;;;;;;25.20;63.23;101012.94;5005880;28;20046;-70
2023/07/19 08:42:05;;;;;;;4.85;1.33;;;;;;;24.68;62.81;101021.06;5005345;28;20046;-70
2023/07/19 08:44:51;;;;;;;6.90;1.73;;;;;;;24.74;60.90;101006.22;5004273;28;20042;-68
2023/07/19 08:47:39;;;;;;;7.80;1.60;;;;;;;24.12;63.81;101005.31;5007264;28;20041;-69
2023/07/19 08:50:25;;;;;;;5.03;1.55;;;;;;;24.31;63.84;101009.25;5001862;28;20054;-69
2023/07/19 08:53:11;;;;;;;3.80;1.20;;;;;;;24.93;62.46;101012.06;5016328;28;20035;-70
2023/07/19 08:55:57;;;;;;;2.20;1.05;;;;;;;24.18;59.62;101004.47;5004733;28;20120;-70
2023/07/19 08:58:43;;;;;;;8.88;1.42;;;;;;;24.38;60.00;101012.09;5008090;28;20545;-69
2023/07/19 09:01:29;;;;;;;3.67;1.20;;;;;;;25.42;58.84;101010.00;4982499;28;20504;-71
2023/07/19 09:04:15;;;;;;;6.57;1.10;;;;;;;25.74;57.95;101010.16;5005373;28;20085;-69
2023/07/19 09:07:03;;;;;;;7.53;1.58;;;;;;;26.21;54.84;101005.31;5006599;28;20504;-70
2023/07/19 09:09:54;;;;;;;6.70;1.25;;;;;;;25.11;58.70;101006.69;5001184;28;20408;-69
2023/07/19 09:12:44;;;;;;;4.93;1.45;;;;;;;24.97;58.01;101007.75;5003315;28;20579;-68
2023/07/19 09:15:30;;;;;;;4.78;1.33;;;;;;;25.24;57.24;101005.84;5006190;28;20081;-69
2023/07/19 09:18:17;;;;;;;5.50;1.30;;;;;;;24.40;60.60;101005.22;5009369;28;20496;-70
2023/07/19 09:21:06;;;;;;;6.15;1.30;;;;;;;23.92;60.27;101004.31;5008785;28;20030;-70
2023/07/19 09:23:53;;;;;;;8.20;1.38;;;;;;;24.18;59.31;101001.66;4999256;28;20088;-68
2023/07/19 09:26:50;;;;;;;4.53;1.40;;;;;;;24.20;58.41;100999.53;4999640;28;20066;-70
2023/07/19 09:29:36;;;;;;;8.15;1.40;;;;;;;24.51;56.32;101002.88;5005865;28;20046;-69
2023/07/19 09:32:23;;;;;;;6.97;1.38;;;;;;;25.06;54.64;101005.63;5000387;28;20046;-68
2023/07/19 09:35:10;;;;;;;10.00;1.15;;;;;;;25.16;53.33;101005.22;4999776;28;20041;-69
2023/07/19 09:37:57;;;;;;;6.80;1.20;;;;;;;25.42;51.36;101008.03;5002736;28;20081;-70
2023/07/19 09:40:43;;;;;;;2.35;1.00;;;;;;;25.69;48.00;101016.41;5003626;28;20069;-70
2023/07/19 09:43:31;;;;;;;2.85;1.10;;;;;;;25.23;48.97;101006.06;5004749;28;20490;-69
2023/07/19 09:46:17;;;;;;;9.15;1.45;;;;;;;25.66;48.80;101003.72;5003300;28;20041;-71
2023/07/19 09:49:03;;;;;;;4.70;0.98;;;;;;;25.46;47.57;101003.72;5008571;28;20107;-71
2023/07/19 09:51:50;;;;;;;7.15;1.15;;;;;;;26.23;47.09;101004.00;5001235;28;20041;-71
2023/07/19 09:54:36;;;;;;;6.25;1.13;;;;;;;25.59;47.28;101005.63;5003685;28;20046;-69
2023/07/19 09:57:26;;;;;;;6.25;1.00;;;;;;;24.80;48.52;101007.31;5003144;28;20045;-69
2023/07/19 10:00:12;;;;;;;5.18;0.85;;;;;;;24.53;50.08;101006.31;5012964;28;20035;-69
2023/07/19 10:02:59;;;;;;;9.13;1.35;;;;;;;24.28;52.50;101008.81;5005557;28;20042;-69
2023/07/19 10:05:45;;;;;;;4.85;1.05;;;;;;;24.03;53.90;101004.59;5000811;28;20041;-71
2023/07/19 10:08:30;;;;;;;3.20;1.20;;;;;;;24.41;54.45;101008.88;5000768;28;20050;-71
2023/07/19 10:11:23;;;;;;;4.28;1.60;;;;;;;24.71;56.40;101008.56;5003671;28;20077;-70
2023/07/19 10:14:09;;;;;;;5.25;1.48;;;;;;;24.84;56.20;101008.63;5002204;28;20044;-69
2023/07/19 10:17:03;;;;;;;3.67;1.40;;;;;;;25.82;52.38;101010.78;4990213;28;20145;-70
2023/07/19 10:20:07;;;;;;;4.43;1.30;;;;;;;25.40;53.54;101010.22;5008271;28;20042;-70
2023/07/19 10:22:58;;;;;;;6.07;1.40;;;;;;;25.09;54.78;101008.84;5007830;28;20037;-69
2023/07/19 10:25:48;;;;;;;6.72;1.83;;;;;;;24.34;57.81;101011.63;5006929;28;20084;-70
2023/07/19 10:28:34;;;;;;;6.97;1.92;;;;;;;24.41;60.93;101011.66;5008395;28;20077;-69
2023/07/19 10:31:20;;;;;;;7.75;1.95;;;;;;;24.28;61.05;101011.63;5003023;28;20057;-70
2023/07/19 10:34:06;;;;;;;10.68;2.45;;;;;;;23.38;63.66;101008.66;5000426;28;20050;-68
2023/07/19 10:36:52;;;;;;;7.30;1.50;;;;;;;24.05;65.10;101007.19;5003769;28;20088;-69
2023/07/19 10:39:37;;;;;;;7.45;2.20;;;;;;;23.80;64.28;101001.22;5002745;28;20050;-69
2023/07/19 10:42:23;;;;;;;5.68;1.92;;;;;;;24.43;63.62;101003.06;4999758;28;20038;-69
2023/07/19 10:45:09;;;;;;;8.38;2.15;;;;;;;24.27;63.80;101004.28;4999938;28;20050;-70
2023/07/19 10:47:59;;;;;;;6.78;2.33;;;;;;;24.82;63.60;100996.75;5002018;28;20053;-70
2023/07/19 10:50:46;;;;;;;9.15;2.28;;;;;;;25.11;64.02;100994.63;5004451;28;20054;-70
2023/07/19 10:53:45;;;;;;;5.63;2.17;;;;;;;25.21;63.58;100995.06;5003121;28;20040;-71
2023/07/19 10:56:32;;;;;;;14.43;2.40;;;;;;;24.73;66.65;100996.09;5001442;28;20049;-69
2023/07/19 10:59:19;;;;;;;7.00;2.05;;;;;;;25.20;66.32;100998.06;5002578;28;20099;-70
2023/07/19 11:02:05;;;;;;;5.93;1.92;;;;;;;24.58;68.11;101004.66;5005319;28;20046;-69
2023/07/19 11:04:51;;;;;;;7.72;2.25;;;;;;;24.39;69.53;100997.03;4994821;28;20125;-70
2023/07/19 11:07:37;;;;;;;7.35;1.70;;;;;;;24.63;70.20;100995.63;5002460;28;20034;-70
2023/07/19 11:10:27;;;;;;;6.10;2.00;;;;;;;24.22;69.30;101000.19;4997884;28;20409;-70
2023/07/19 11:13:13;;;;;;;9.38;1.98;;;;;;;23.61;72.80;100991.63;4999665;28;20122;-69
2023/07/19 11:15:59;;;;;;;4.72;1.35;;;;;;;23.74;74.39;100991.69;4993034;28;20065;-70
2023/07/19 11:18:45;;;;;;;4.97;1.67;;;;;;;23.98;72.39;100990.38;4998810;28;20073;-69
2023/07/19 11:21:30;;;;;;;3.17;1.55;;;;;;;24.21;72.38;100994.78;5005403;28;20045;-69
2023/07/19 11:24:16;;;;;;;8.57;1.55;;;;;;;24.49;72.35;100989.09;5001248;28;20703;-70
2023/07/19 11:27:02;;;;;;;5.63;1.88;;;;;;;25.18;68.88;101000.25;4988240;28;20993;-70
2023/07/19 11:29:52;;;;;;;5.38;1.60;;;;;;;24.87;69.82;100993.31;4996975;28;20042;-71
2023/07/19 11:32:38;;;;;;;8.32;1.40;;;;;;;24.35;70.93;100985.38;4998552;28;20053;-69
2023/07/19 11:35:27;;;;;;;6.65;1.63;;;;;;;25.02;70.07;100988.38;4992139;28;20046;-70
2023/07/19 11:38:17;;;;;;;9.93;1.58;;;;;;;25.09;70.11;100985.59;4983620;28;20046;-69
2023/07/19 11:41:03;;;;;;;4.88;1.20;;;;;;;25.48;69.14;100984.75;4995858;28;20043;-70
2023/07/19 11:43:52;;;;;;;4.43;1.25;;;;;;;25.59;65.21;100990.78;5007192;28;20056;-70
2023/07/19 11:46:37;;;;;;;3.33;1.20;;;;;;;25.89;63.13;100985.50;5001162;28;20484;-71
2023/07/19 11:49:23;;;;;;;6.93;1.35;;;;;;;26.31;61.54;100983.25;5002588;28;20148;-70
2023/07/19 11:52:10;;;;;;;4.75;1.40;;;;;;;25.89;61.84;100979.06;5001374;28;20116;-70
2023/07/19 11:54:55;;;;;;;7.55;1.25;;;;;;;24.80;64.27;100975.63;5007873;28;20153;-69
2023/07/19 11:57:42;;;;;;;4.22;1.42;;;;;;;25.11;62.25;100978.69;5000666;28;20039;-70
2023/07/19 12:00:29;;;;;;;4.82;1.23;;;;;;;24.65;63.96;100981.44;5005265;28;20034;-69
2023/07/19 12:03:17;;;;;;;5.75;1.45;;;;;;;24.83;64.95;100984.47;4999735;28;20481;-69
2023/07/19 12:06:03;;;;;;;2.55;0.77;;;;;;;25.16;63.99;100983.63;5010665;28;20473;-70
2023/07/19 12:08:48;;;;;;;2.42;0.90;;;;;;;25.75;62.77;100984.69;5008753;28;20044;-70
2023/07/19 12:11:34;;;;;;;4.72;0.98;;;;;;;25.55;61.36;100979.13;5001101;28;20046;-70
2023/07/19 12:14:20;;;;;;;12.43;1.10;;;;;;;25.48;61.30;100987.56;5003963;28;20046;-70
2023/07/19 12:17:06;;;;;;;8.90;1.00;;;;;;;25.13;63.43;100973.72;5002888;28;20516;-69
2023/07/19 12:19:53;;;;;;;7.13;1.02;;;;;;;25.19;62.07;100973.94;5003272;28;20038;-69
2023/07/19 12:22:42;;;;;;;9.27;1.05;;;;;;;24.87;64.87;100977.34;5008625;28;20128;-69
2023/07/19 12:25:28;;;;;;;2.78;1.10;;;;;;;24.50;69.39;100981.56;5006611;28;20038;-70
2023/07/19 12:28:14;;;;;;;7.97;1.30;;;;;;;24.07;72.72;100981.81;4987060;28;20120;-70
2023/07/19 12:31:00;;;;;;;5.93;0.98;;;;;;;23.94;74.37;100977.88;4991188;28;20073;-70
2023/07/19 12:33:47;;;;;;;7.18;1.17;;;;;;;23.55;76.49;100978.47;5001145;28;20042;-70
2023/07/19 12:36:32;;;;;;;5.38;1.00;;;;;;;23.44;81.26;100982.69;5000832;28;20532;-69
2023/07/19 12:39:18;;;;;;;4.82;1.02;;;;;;;23.26;81.68;100974.81;5008347;28;20048;-70
2023/07/19 12:42:04;;;;;;;5.78;1.80;;;;;;;23.49;80.88;100974.56;5005636;28;20092;-69
2023/07/19 12:44:50;;;;;;;7.57;0.90;;;;;;;23.98;78.36;100970.78;5002672;28;20061;-69